Groveport, OH (43125)

6:50 AM EST on December 28, 2014 (GMT -0500)
Bixby Grove | Change Station
CLOSE
Current Station
Personal Weather Station
Location: Groveport, OH
Elevation: 740 ft
Nearby Weather Stations

Elev 740 ft 39.86 °N, 82.92 °W | Updated 3 seconds ago

Rain
Rain
37.2 °F
Feels Like 37 °F
N
2.5
Wind Variable Wind from NNW
Gusts 5.8 mph

Today
High -- | Low -- °F
--% Chance of Precip.
Yesterday
High -- | Low -- °F
Precip. -- in
7:52 AM 5:14 PM
Waxing Crescent, 47% visible
Pressure 30.07 in
Visibility 3.0 miles
Clouds Mostly Cloudy 500 ft
Overcast 1200 ft
Windchill 37 °F
Dew Point 36 °F
Humidity 95%
Rainfall 0.18 in
Snow Depth Not available.
UV 0 out of 12
Pollen .10 out of 12
Air Quality Not available.
Flu Activity Not available.
METAR KLCK 281135Z AUTO 33007KT 3SM +DZ BKN005 OVC012 03/02 A3007 RMK AO2 T00250019

More Conditions Fewer Conditions

Pressure 30.07 in
Visibility 3.0 miles
Clouds Mostly Cloudy 500 ft
Overcast 1200 ft
Windchill 37 °F
Dew Point 36 °F
Humidity 95%
Rainfall 0.18 in
Snow Depth Not available.
UV 0 out of 12
Pollen .10 out of 12
Air Quality Not available.
Flu Activity Not available.
METAR KLCK 281135Z AUTO 33007KT 3SM +DZ BKN005 OVC012 03/02 A3007 RMK AO2 T00250019

More Conditions Fewer Conditions

10-Day Weather Forecast

Almanac

Astronomy

Dec. 28, 2014 Rise Set
Actual Time
Civil Twilight
Nautical Twilight
Astronomical Twilight
Moon
Length of Visible Light
Length of Day
Tomorrow will be .
, % of the Moon is Illuminated

Today's Extremes

State Highs State Lows

Community

WunderPhotos

Upload Photos

1,781,232 photos uploaded!

WunderBlogs® & News

Nearby

Air Quality

  Air Quality AQ Index Pollutant
Not available.

Snow Depth

Station Depth Elevation

Earthquake Activity

City Distance Mag. Time & Date
Minimum magnitude displayed is 2.5.

Coastal Water Temperatures

Place Temperature

Nearby Weather Stations